DAL1696 KLAX-KLAS
Flight info
| Callsign | DAL1696 |
|---|---|
| Flight time | N/A |
| Altitude | 29000 |
| Route | ORCKA5 MISEN RNDRZ4 |
| Aircraft | A320/M-SDE3FGHIRWY/LB1 |
Departure
| Time | 2026-04-20 03:17 |
|---|---|
| Airport | Los Angeles International Airport (KLAX) |
Arrival
| Time | N/A |
|---|---|
| Airport | Harry Reid International Airport (KLAS) |
| Time | Latitude | Longitude | Altitude | Speed | Heading |
|---|---|---|---|---|---|
| 2026-04-20 03:06 | 33.94717 | -118.40255 | 95 ft | 0 kts | 353° |
| 2026-04-20 03:08 | 33.94725 | -118.40256 | 94 ft | 6 kts | 353° |
| 2026-04-20 03:08 | 33.94799 | -118.40265 | 95 ft | 8 kts | 3° |
| 2026-04-20 03:09 | 33.94826 | -118.40219 | 94 ft | 7 kts | 80° |
| 2026-04-20 03:09 | 33.94834 | -118.40157 | 95 ft | 7 kts | 82° |
| 2026-04-20 03:09 | 33.94841 | -118.40098 | 93 ft | 7 kts | 73° |
| 2026-04-20 03:09 | 33.94878 | -118.40078 | 93 ft | 5 kts | 354° |
| 2026-04-20 03:10 | 33.94909 | -118.40073 | 95 ft | 4 kts | 31° |
| 2026-04-20 03:10 | 33.94920 | -118.40038 | 94 ft | 2 kts | 82° |
| 2026-04-20 03:10 | 33.94927 | -118.39983 | 93 ft | 11 kts | 83° |
| 2026-04-20 03:10 | 33.94935 | -118.39941 | 93 ft | 4 kts | 66° |
| 2026-04-20 03:11 | 33.94941 | -118.39930 | 93 ft | 0 kts | 49° |
| 2026-04-20 03:16 | 33.94954 | -118.39918 | 94 ft | 5 kts | 32° |
| 2026-04-20 03:16 | 33.95026 | -118.39916 | 93 ft | 6 kts | 353° |
| 2026-04-20 03:16 | 33.95047 | -118.39950 | 97 ft | 7 kts | 263° |
| 2026-04-20 03:16 | 33.95032 | -118.40061 | 96 ft | 33 kts | 262° |
| 2026-04-20 03:17 | 33.94973 | -118.40631 | 97 ft | 102 kts | 263° |
| 2026-04-20 03:17 | 33.94860 | -118.41702 | 101 ft | 154 kts | 262° |
| 2026-04-20 03:17 | 33.94722 | -118.43016 | 602 ft | 161 kts | 262° |
| 2026-04-20 03:17 | 33.94566 | -118.44427 | 1021 ft | 181 kts | 262° |
| 2026-04-20 03:18 | 33.94393 | -118.46035 | 1391 ft | 206 kts | 262° |
| 2026-04-20 03:18 | 33.94199 | -118.47843 | 1847 ft | 230 kts | 262° |
| 2026-04-20 03:18 | 33.93981 | -118.49845 | 2373 ft | 251 kts | 262° |
| 2026-04-20 03:18 | 33.93749 | -118.51944 | 3104 ft | 262 kts | 261° |
| 2026-04-20 03:19 | 33.93502 | -118.54144 | 3913 ft | 269 kts | 259° |
| 2026-04-20 03:19 | 33.93229 | -118.56387 | 4819 ft | 273 kts | 257° |
| 2026-04-20 03:19 | 33.92673 | -118.58569 | 5675 ft | 274 kts | 238° |
| 2026-04-20 03:19 | 33.91432 | -118.60276 | 6525 ft | 273 kts | 213° |
| 2026-04-20 03:20 | 33.89727 | -118.61236 | 7357 ft | 273 kts | 191° |
| 2026-04-20 03:20 | 33.87849 | -118.61268 | 8194 ft | 274 kts | 167° |
| 2026-04-20 03:20 | 33.86108 | -118.60363 | 9033 ft | 278 kts | 145° |
| 2026-04-20 03:20 | 33.84807 | -118.58639 | 9856 ft | 285 kts | 121° |
| 2026-04-20 03:21 | 33.84224 | -118.56350 | 10583 ft | 295 kts | 96° |
| 2026-04-20 03:21 | 33.84536 | -118.53903 | 11290 ft | 306 kts | 70° |
| 2026-04-20 03:21 | 33.85766 | -118.51772 | 11884 ft | 321 kts | 47° |
| 2026-04-20 03:21 | 33.87435 | -118.49834 | 12081 ft | 345 kts | 45° |
| 2026-04-20 03:22 | 33.88576 | -118.48569 | 12214 ft | 358 kts | 44° |